Time,TemperatureF,DewpointF,PressureIn,WindDirection,WindDirectionDegrees,WindSpeedMPH,WindSpeedGustMPH,Humidity,HourlyPrecipIn,Conditions,Clouds,dailyrainin,SoftwareType,DateUTC
2013-09-26 00:00:00,53.2,50.7,29.93,NW,321,0.0,0.0,91,0.00,,CLR,0.00,VWS V14.01,2013-09-26 05:00:00,
2013-09-26 00:05:00,53.0,50.5,29.93,NW,321,0.0,0.0,91,0.00,,CLR,0.00,VWS V14.01,2013-09-26 05:05:00,
2013-09-26 00:10:00,52.9,50.3,29.93,NW,321,0.0,0.0,91,0.00,,CLR,0.00,VWS V14.01,2013-09-26 05:10:00,
2013-09-26 00:11:00,52.8,50.2,29.93,NW,322,0.0,0.0,91,0.00,,CLR,0.00,VWS V14.01,2013-09-26 05:11:00,
2013-09-26 00:15:00,52.8,50.5,29.93,NW,321,0.0,0.0,92,0.00,,CLR,0.00,VWS V14.01,2013-09-26 05:15:00,
2013-09-26 00:16:00,52.8,50.5,29.93,NW,321,0.0,0.0,92,0.00,,CLR,0.00,VWS V14.01,2013-09-26 05:16:00,
2013-09-26 00:20:00,52.7,50.5,29.93,NW,321,0.0,0.0,92,0.00,,CLR,0.00,VWS V14.01,2013-09-26 05:20:00,
2013-09-26 00:21:00,52.6,50.3,29.93,NW,321,0.0,0.0,92,0.00,,CLR,0.00,VWS V14.01,2013-09-26 05:21:00,
2013-09-26 00:25:00,52.6,50.3,29.93,NW,321,0.0,0.0,92,0.00,,CLR,0.00,VWS V14.01,2013-09-26 05:25:00,
2013-09-26 00:26:00,52.5,50.2,29.93,NW,321,0.0,0.0,92,0.00,,CLR,0.00,VWS V14.01,2013-09-26 05:26:00,
2013-09-26 00:30:00,52.4,50.2,29.93,NNW,333,0.0,0.0,92,0.00,,CLR,0.00,VWS V14.01,2013-09-26 05:30:00,
2013-09-26 00:31:00,52.4,50.4,29.93,NNW,333,0.0,0.0,93,0.00,,CLR,0.00,VWS V14.01,2013-09-26 05:31:00,
2013-09-26 00:35:00,52.4,50.4,29.93,NNW,333,0.0,0.0,93,0.00,,CLR,0.00,VWS V14.01,2013-09-26 05:35:00,
2013-09-26 00:36:00,52.4,50.4,29.93,NNW,333,0.0,0.0,93,0.00,,CLR,0.00,VWS V14.01,2013-09-26 05:36:00,
2013-09-26 00:40:00,52.7,50.7,29.93,NNW,333,0.0,0.0,93,0.00,,CLR,0.00,VWS V14.01,2013-09-26 05:40:00,
2013-09-26 00:41:00,52.8,51.1,29.93,NNW,333,0.0,0.0,94,0.00,,CLR,0.00,VWS V14.01,2013-09-26 05:41:00,
2013-09-26 00:45:00,53.1,51.4,29.93,NNW,333,0.0,0.0,94,0.00,,OVC016,0.00,VWS V14.01,2013-09-26 05:45:00,
2013-09-26 00:46:00,53.2,51.5,29.93,NNW,333,0.0,0.0,94,0.00,,CLR,0.00,VWS V14.01,2013-09-26 05:46:00,
2013-09-26 00:50:00,53.3,51.3,29.93,NNW,333,0.0,0.0,93,0.00,,CLR,0.00,VWS V14.01,2013-09-26 05:50:00,
2013-09-26 00:51:00,53.2,51.2,29.93,NNW,333,0.0,0.0,93,0.00,,CLR,0.00,VWS V14.01,2013-09-26 05:51:00,
2013-09-26 00:55:00,53.0,51.0,29.93,NNW,333,0.0,1.0,93,0.00,,CLR,0.00,VWS V14.01,2013-09-26 05:55:00,
2013-09-26 00:56:00,52.9,50.9,29.93,NNW,333,0.0,1.0,93,0.00,,CLR,0.00,VWS V14.01,2013-09-26 05:56:00,
2013-09-26 01:00:00,52.8,50.8,29.93,NNW,331,0.0,0.0,93,0.00,,CLR,0.00,VWS V14.01,2013-09-26 06:00:00,
2013-09-26 01:01:00,52.8,50.8,29.93,NNW,331,0.0,0.0,93,0.00,,CLR,0.00,VWS V14.01,2013-09-26 06:01:00,
2013-09-26 01:05:00,52.6,50.6,29.93,NNW,331,0.0,0.0,93,0.00,,CLR,0.00,VWS V14.01,2013-09-26 06:05:00,
2013-09-26 01:06:00,52.5,50.2,29.93,NNW,331,0.0,0.0,92,0.00,,CLR,0.00,VWS V14.01,2013-09-26 06:06:00,
2013-09-26 01:10:00,52.3,50.3,29.94,NNW,331,0.0,0.0,93,0.00,,CLR,0.00,VWS V14.01,2013-09-26 06:10:00,
2013-09-26 01:12:00,52.2,50.2,29.94,NNW,331,0.0,0.0,93,0.00,,CLR,0.00,VWS V14.01,2013-09-26 06:12:00,
2013-09-26 01:15:00,52.2,50.2,29.94,NNW,331,0.0,0.0,93,0.00,,CLR,0.00,VWS V14.01,2013-09-26 06:15:00,
2013-09-26 01:17:00,52.2,50.2,29.93,NNW,331,0.0,0.0,93,0.00,,CLR,0.00,VWS V14.01,2013-09-26 06:17:00,
2013-09-26 01:20:00,52.2,50.5,29.94,NNW,331,0.0,0.0,94,0.00,,CLR,0.00,VWS V14.01,2013-09-26 06:20:00,
2013-09-26 01:22:00,52.2,50.5,29.93,NNW,331,0.0,0.0,94,0.00,,CLR,0.00,VWS V14.01,2013-09-26 06:22:00,
2013-09-26 01:25:00,52.2,50.5,29.93,NNW,331,0.0,0.0,94,0.00,,CLR,0.00,VWS V14.01,2013-09-26 06:25:00,
2013-09-26 01:27:00,52.7,51.3,29.94,NNW,331,0.0,0.0,95,0.00,,CLR,0.00,VWS V14.01,2013-09-26 06:27:00,
2013-09-26 01:30:00,53.0,51.6,29.94,NNW,331,0.0,0.0,95,0.00,,CLR,0.00,VWS V14.01,2013-09-26 06:30:00,
2013-09-26 01:33:00,52.8,50.8,29.94,NNW,331,0.0,0.0,93,0.00,,CLR,0.00,VWS V14.01,2013-09-26 06:33:00,
2013-09-26 01:35:00,52.6,50.6,29.94,NNW,331,0.0,0.0,93,0.00,,CLR,0.00,VWS V14.01,2013-09-26 06:35:00,
2013-09-26 01:38:00,52.2,50.0,29.94,NNW,331,0.0,0.0,92,0.00,,CLR,0.00,VWS V14.01,2013-09-26 06:38:00,
2013-09-26 01:40:00,51.9,49.7,29.94,NNW,331,0.0,0.0,92,0.00,,CLR,0.00,VWS V14.01,2013-09-26 06:40:00,
2013-09-26 01:43:00,51.7,49.8,29.94,NNW,331,0.0,0.0,93,0.00,,CLR,0.00,VWS V14.01,2013-09-26 06:43:00,
2013-09-26 01:45:00,51.7,49.8,29.94,NNW,331,0.0,0.0,93,0.00,,CLR,0.00,VWS V14.01,2013-09-26 06:45:00,
2013-09-26 01:48:00,51.6,49.7,29.94,North,360,0.0,0.0,93,0.00,,CLR,0.00,VWS V14.01,2013-09-26 06:48:00,
2013-09-26 01:50:00,51.6,49.7,29.94,NNW,331,0.0,0.0,93,0.00,,CLR,0.00,VWS V14.01,2013-09-26 06:50:00,
2013-09-26 01:53:00,51.6,49.7,29.94,NNW,331,0.0,0.0,93,0.00,,CLR,0.00,VWS V14.01,2013-09-26 06:53:00,
2013-09-26 01:55:00,51.6,49.9,29.94,NNW,331,0.0,0.0,94,0.00,,CLR,0.00,VWS V14.01,2013-09-26 06:55:00,
2013-09-26 01:58:00,51.7,50.0,29.94,NNW,331,0.0,0.0,94,0.00,,CLR,0.00,VWS V14.01,2013-09-26 06:58:00,
2013-09-26 02:00:00,51.7,50.0,29.94,North,360,0.0,0.0,94,0.00,,CLR,0.00,VWS V14.01,2013-09-26 07:00:00,
2013-09-26 02:03:00,51.8,50.1,29.95,NNW,331,0.0,0.0,94,0.00,,CLR,0.00,VWS V14.01,2013-09-26 07:03:00,
2013-09-26 02:05:00,51.9,50.5,29.95,NNW,331,0.0,0.0,95,0.00,,CLR,0.00,VWS V14.01,2013-09-26 07:05:00,
2013-09-26 02:08:00,52.0,50.3,29.95,NNW,331,0.0,0.0,94,0.00,,CLR,0.00,VWS V14.01,2013-09-26 07:08:00,
2013-09-26 02:10:00,51.9,50.2,29.95,NNW,331,0.0,0.0,94,0.00,,CLR,0.00,VWS V14.01,2013-09-26 07:10:00,
2013-09-26 02:13:00,51.9,50.2,29.95,NNW,331,0.0,0.0,94,0.00,,CLR,0.00,VWS V14.01,2013-09-26 07:13:00,
2013-09-26 02:15:00,52.0,50.6,29.95,NNW,331,0.0,0.0,95,0.00,,CLR,0.00,VWS V14.01,2013-09-26 07:15:00,
2013-09-26 02:18:00,52.3,50.9,29.95,NNW,331,0.0,0.0,95,0.00,,CLR,0.00,VWS V14.01,2013-09-26 07:18:00,
2013-09-26 02:20:00,52.3,50.9,29.95,NNW,331,0.0,0.0,95,0.00,,CLR,0.00,VWS V14.01,2013-09-26 07:20:00,
2013-09-26 02:23:00,52.3,50.6,29.95,NNW,331,0.0,0.0,94,0.00,,CLR,0.00,VWS V14.01,2013-09-26 07:23:00,
2013-09-26 02:25:00,52.2,50.5,29.95,NNW,331,0.0,0.0,94,0.00,,CLR,0.00,VWS V14.01,2013-09-26 07:25:00,
2013-09-26 02:28:00,52.4,51.0,29.95,North,355,0.0,0.0,95,0.00,,CLR,0.00,VWS V14.01,2013-09-26 07:28:00,
2013-09-26 02:30:00,52.7,51.6,29.95,NNE,24,3.0,4.0,96,0.00,,CLR,0.00,VWS V14.01,2013-09-26 07:30:00,
2013-09-26 02:33:00,53.6,52.5,29.95,NNE,14,2.0,4.0,96,0.00,,CLR,0.00,VWS V14.01,2013-09-26 07:33:00,
2013-09-26 02:35:00,53.8,53.0,29.95,NNE,14,0.0,4.0,97,0.00,,CLR,0.00,VWS V14.01,2013-09-26 07:35:00,
2013-09-26 02:38:00,54.2,53.1,29.95,NNE,14,0.0,0.0,96,0.00,,CLR,0.00,VWS V14.01,2013-09-26 07:38:00,
2013-09-26 02:40:00,54.2,53.1,29.95,NNE,14,0.0,0.0,96,0.00,,CLR,0.00,VWS V14.01,2013-09-26 07:40:00,
2013-09-26 02:43:00,54.2,52.8,29.95,NNE,14,0.0,0.0,95,0.00,,CLR,0.00,VWS V14.01,2013-09-26 07:43:00,
2013-09-26 02:45:00,54.1,52.7,29.95,NNE,14,0.0,0.0,95,0.00,,CLR,0.00,VWS V14.01,2013-09-26 07:45:00,
2013-09-26 02:48:00,53.0,50.7,29.95,NNW,342,0.0,0.0,92,0.00,,CLR,0.00,VWS V14.01,2013-09-26 07:48:00,
2013-09-26 02:50:00,52.6,50.3,29.95,NNW,342,0.0,0.0,92,0.00,,CLR,0.00,VWS V14.01,2013-09-26 07:50:00,
2013-09-26 02:54:00,51.6,49.7,29.95,NNW,342,0.0,0.0,93,0.00,,CLR,0.00,VWS V14.01,2013-09-26 07:54:00,
2013-09-26 02:55:00,51.5,49.5,29.95,NNW,342,0.0,0.0,93,0.00,,CLR,0.00,VWS V14.01,2013-09-26 07:55:00,
2013-09-26 02:59:00,51.2,49.5,29.96,NNW,342,0.0,0.0,94,0.00,,CLR,0.00,VWS V14.01,2013-09-26 07:59:00,
2013-09-26 03:00:00,51.2,49.5,29.96,NNW,342,0.0,0.0,94,0.00,,CLR,0.00,VWS V14.01,2013-09-26 08:00:00,
2013-09-26 03:04:00,51.1,49.4,29.96,NNW,342,0.0,0.0,94,0.00,,CLR,0.00,VWS V14.01,2013-09-26 08:04:00,
2013-09-26 03:05:00,51.1,49.4,29.96,North,360,0.0,0.0,94,0.00,,CLR,0.00,VWS V14.01,2013-09-26 08:05:00,
2013-09-26 03:09:00,51.1,49.4,29.96,NNW,346,0.0,2.0,94,0.00,,CLR,0.00,VWS V14.01,2013-09-26 08:09:00,
2013-09-26 03:10:00,51.1,49.4,29.96,NNW,346,0.0,2.0,94,0.00,,OVC016,0.00,VWS V14.01,2013-09-26 08:10:00,
2013-09-26 03:14:00,51.2,49.8,29.96,NNW,343,0.0,4.0,95,0.00,,CLR,0.00,VWS V14.01,2013-09-26 08:14:00,
2013-09-26 03:15:00,51.2,49.8,29.96,North,360,0.0,4.0,95,0.00,,CLR,0.00,VWS V14.01,2013-09-26 08:15:00,
2013-09-26 03:19:00,51.2,49.8,29.96,NNW,327,0.0,5.0,95,0.00,,CLR,0.00,VWS V14.01,2013-09-26 08:19:00,
2013-09-26 03:20:00,51.2,49.8,29.96,North,360,0.0,5.0,95,0.00,,CLR,0.00,VWS V14.01,2013-09-26 08:20:00,
2013-09-26 03:24:00,51.2,49.8,29.97,NW,321,0.0,0.0,95,0.00,,CLR,0.00,VWS V14.01,2013-09-26 08:24:00,
2013-09-26 03:25:00,51.2,49.8,29.97,NW,321,0.0,0.0,95,0.00,,CLR,0.00,VWS V14.01,2013-09-26 08:25:00,
2013-09-26 03:29:00,51.2,49.8,29.97,NW,322,0.0,0.0,95,0.00,,CLR,0.00,VWS V14.01,2013-09-26 08:29:00,
2013-09-26 03:30:00,51.2,49.8,29.97,NW,322,0.0,0.0,95,0.00,,CLR,0.00,VWS V14.01,2013-09-26 08:30:00,
2013-09-26 03:34:00,51.2,49.8,29.97,NW,323,0.0,1.0,95,0.00,,CLR,0.00,VWS V14.01,2013-09-26 08:34:00,
2013-09-26 03:35:00,51.2,49.8,29.97,NW,322,0.0,1.0,95,0.00,,CLR,0.00,VWS V14.01,2013-09-26 08:35:00,
2013-09-26 03:39:00,51.1,49.7,29.97,North,360,0.0,0.0,95,0.00,,CLR,0.00,VWS V14.01,2013-09-26 08:39:00,
2013-09-26 03:40:00,51.1,49.7,29.97,NW,323,0.0,0.0,95,0.00,,CLR,0.00,VWS V14.01,2013-09-26 08:40:00,
2013-09-26 03:44:00,51.1,49.7,29.97,NW,322,0.0,0.0,95,0.00,,CLR,0.00,VWS V14.01,2013-09-26 08:44:00,
2013-09-26 03:45:00,51.1,49.7,29.97,NW,322,0.0,0.0,95,0.00,,CLR,0.00,VWS V14.01,2013-09-26 08:45:00,
2013-09-26 03:49:00,51.0,49.6,29.97,NW,323,0.0,0.0,95,0.00,,CLR,0.00,VWS V14.01,2013-09-26 08:49:00,
2013-09-26 03:50:00,51.0,49.6,29.97,NW,323,0.0,0.0,95,0.00,,CLR,0.00,VWS V14.01,2013-09-26 08:50:00,
2013-09-26 03:54:00,51.0,49.6,29.97,North,360,0.0,0.0,95,0.00,,CLR,0.00,VWS V14.01,2013-09-26 08:54:00,
2013-09-26 03:55:00,51.0,49.6,29.97,NW,323,0.0,0.0,95,0.00,,CLR,0.00,VWS V14.01,2013-09-26 08:55:00,
2013-09-26 03:59:00,51.3,50.2,29.97,NW,323,0.0,0.0,96,0.00,,CLR,0.00,VWS V14.01,2013-09-26 08:59:00,
2013-09-26 04:00:00,51.3,50.2,29.97,NW,323,0.0,0.0,96,0.00,,CLR,0.00,VWS V14.01,2013-09-26 09:00:00,
2013-09-26 04:04:00,51.8,50.7,29.97,North,360,0.0,0.0,96,0.00,,CLR,0.00,VWS V14.01,2013-09-26 09:04:00,
2013-09-26 04:05:00,51.8,50.7,29.97,North,360,0.0,0.0,96,0.00,,CLR,0.00,VWS V14.01,2013-09-26 09:05:00,
2013-09-26 04:09:00,52.3,51.2,29.97,NW,323,0.0,4.0,96,0.00,,CLR,0.00,VWS V14.01,2013-09-26 09:09:00,
2013-09-26 04:10:00,52.3,51.2,29.97,NW,323,0.0,4.0,96,0.00,,CLR,0.00,VWS V14.01,2013-09-26 09:10:00,
2013-09-26 04:14:00,52.1,51.0,29.97,NW,323,0.0,0.0,96,0.00,,CLR,0.00,VWS V14.01,2013-09-26 09:14:00,
2013-09-26 04:15:00,52.1,51.0,29.97,NW,323,0.0,0.0,96,0.00,,CLR,0.00,VWS V14.01,2013-09-26 09:15:00,
2013-09-26 04:19:00,51.8,50.4,29.97,North,360,0.0,0.0,95,0.00,,CLR,0.00,VWS V14.01,2013-09-26 09:19:00,
2013-09-26 04:20:00,51.8,50.4,29.97,NW,323,0.0,0.0,95,0.00,,CLR,0.00,VWS V14.01,2013-09-26 09:20:00,
2013-09-26 04:24:00,51.6,50.2,29.97,NW,323,0.0,0.0,95,0.00,,CLR,0.00,VWS V14.01,2013-09-26 09:24:00,
2013-09-26 04:25:00,51.6,50.2,29.97,NW,323,0.0,0.0,95,0.00,,CLR,0.00,VWS V14.01,2013-09-26 09:25:00,
2013-09-26 04:29:00,51.4,50.0,29.97,NW,323,0.0,0.0,95,0.00,,CLR,0.00,VWS V14.01,2013-09-26 09:29:00,
2013-09-26 04:30:00,51.4,50.0,29.97,NW,323,0.0,0.0,95,0.00,,CLR,0.00,VWS V14.01,2013-09-26 09:30:00,
2013-09-26 04:34:00,51.2,49.8,29.98,NW,323,2.0,3.0,95,0.00,,CLR,0.00,VWS V14.01,2013-09-26 09:34:00,
2013-09-26 04:35:00,51.2,49.8,29.98,NW,323,2.0,3.0,95,0.00,,CLR,0.00,VWS V14.01,2013-09-26 09:35:00,
2013-09-26 04:39:00,50.9,49.5,29.98,North,360,0.0,0.0,95,0.00,,CLR,0.00,VWS V14.01,2013-09-26 09:39:00,
2013-09-26 04:40:00,50.9,49.5,29.98,North,360,0.0,0.0,95,0.00,,CLR,0.00,VWS V14.01,2013-09-26 09:40:00,
2013-09-26 04:44:00,50.6,49.2,29.98,NW,323,0.0,0.0,95,0.00,,CLR,0.00,VWS V14.01,2013-09-26 09:44:00,
2013-09-26 04:45:00,50.6,49.2,29.98,NW,323,0.0,0.0,95,0.00,,CLR,0.00,VWS V14.01,2013-09-26 09:45:00,
2013-09-26 04:49:00,50.6,49.2,29.98,NW,323,0.0,0.0,95,0.00,,CLR,0.00,VWS V14.01,2013-09-26 09:49:00,
2013-09-26 04:50:00,50.6,49.2,29.98,NW,323,0.0,0.0,95,0.00,,CLR,0.00,VWS V14.01,2013-09-26 09:50:00,
2013-09-26 04:54:00,50.7,49.6,29.98,North,360,0.0,0.0,96,0.00,,CLR,0.00,VWS V14.01,2013-09-26 09:54:00,
2013-09-26 04:55:00,50.7,49.6,29.98,North,360,0.0,0.0,96,0.00,,CLR,0.00,VWS V14.01,2013-09-26 09:55:00,
2013-09-26 05:00:00,50.9,49.8,29.98,NW,323,0.0,0.0,96,0.00,,CLR,0.00,VWS V14.01,2013-09-26 10:00:00,
2013-09-26 05:05:00,51.1,50.0,29.99,NW,323,0.0,0.0,96,0.00,,CLR,0.00,VWS V14.01,2013-09-26 10:05:00,
2013-09-26 05:10:00,51.3,50.2,29.99,NW,323,0.0,0.0,96,0.00,,CLR,0.00,VWS V14.01,2013-09-26 10:10:00,
2013-09-26 05:15:00,51.5,50.4,29.99,NW,323,0.0,3.0,96,0.00,,CLR,0.00,VWS V14.01,2013-09-26 10:15:00,
2013-09-26 05:20:00,51.7,50.6,29.99,NW,323,0.0,0.0,96,0.00,,CLR,0.00,VWS V14.01,2013-09-26 10:20:00,
2013-09-26 05:21:00,51.8,50.7,29.99,North,360,0.0,0.0,96,0.00,,CLR,0.00,VWS V14.01,2013-09-26 10:21:00,
2013-09-26 05:25:00,51.9,50.8,29.99,NW,323,0.0,0.0,96,0.00,,CLR,0.00,VWS V14.01,2013-09-26 10:25:00,
2013-09-26 05:26:00,51.9,50.8,29.99,NW,323,0.0,0.0,96,0.00,,CLR,0.00,VWS V14.01,2013-09-26 10:26:00,
2013-09-26 05:30:00,52.0,50.9,29.99,NW,323,0.0,0.0,96,0.00,,CLR,0.00,VWS V14.01,2013-09-26 10:30:00,
2013-09-26 05:31:00,52.0,50.9,29.99,NW,323,0.0,0.0,96,0.00,,CLR,0.00,VWS V14.01,2013-09-26 10:31:00,
2013-09-26 05:35:00,52.0,50.9,29.99,NW,323,0.0,0.0,96,0.00,,CLR,0.00,VWS V14.01,2013-09-26 10:35:00,
2013-09-26 05:36:00,52.0,50.9,29.99,NW,323,0.0,0.0,96,0.00,,CLR,0.00,VWS V14.01,2013-09-26 10:36:00,
2013-09-26 05:40:00,51.9,50.8,29.99,NW,323,0.0,0.0,96,0.00,,CLR,0.00,VWS V14.01,2013-09-26 10:40:00,
2013-09-26 05:42:00,52.0,50.9,29.99,NW,323,0.0,0.0,96,0.00,,CLR,0.00,VWS V14.01,2013-09-26 10:42:00,
2013-09-26 05:45:00,52.1,51.0,29.99,NW,323,0.0,0.0,96,0.00,,CLR,0.00,VWS V14.01,2013-09-26 10:45:00,
2013-09-26 05:47:00,52.1,51.0,29.99,NW,323,0.0,0.0,96,0.00,,CLR,0.00,VWS V14.01,2013-09-26 10:47:00,
2013-09-26 05:50:00,52.4,51.3,29.99,NW,323,0.0,0.0,96,0.00,,CLR,0.00,VWS V14.01,2013-09-26 10:50:00,
2013-09-26 05:52:00,52.6,51.8,30.00,NW,323,0.0,0.0,97,0.00,,CLR,0.00,VWS V14.01,2013-09-26 10:52:00,
2013-09-26 05:55:00,52.8,52.0,30.00,NW,323,0.0,0.0,97,0.00,,CLR,0.00,VWS V14.01,2013-09-26 10:55:00,
2013-09-26 05:57:00,53.0,52.2,29.99,NW,323,0.0,0.0,97,0.00,,CLR,0.00,VWS V14.01,2013-09-26 10:57:00,
2013-09-26 06:00:00,53.3,52.5,30.00,NW,323,0.0,0.0,97,0.00,,CLR,0.00,VWS V14.01,2013-09-26 11:00:00,
2013-09-26 06:02:00,53.7,52.9,30.00,NW,323,0.0,0.0,97,0.00,,CLR,0.00,VWS V14.01,2013-09-26 11:02:00,
2013-09-26 06:05:00,54.1,53.3,30.00,NW,323,0.0,0.0,97,0.00,,CLR,0.00,VWS V14.01,2013-09-26 11:05:00,
2013-09-26 06:07:00,54.5,53.7,30.00,NW,323,0.0,0.0,97,0.00,,CLR,0.00,VWS V14.01,2013-09-26 11:07:00,
2013-09-26 06:10:00,55.1,54.3,30.00,NW,323,0.0,1.0,97,0.00,,CLR,0.00,VWS V14.01,2013-09-26 11:10:00,
2013-09-26 06:12:00,55.7,55.2,30.00,NW,323,0.0,1.0,98,0.00,,CLR,0.00,VWS V14.01,2013-09-26 11:12:00,
2013-09-26 06:15:00,56.2,55.7,30.00,NW,323,0.0,0.0,98,0.00,,CLR,0.00,VWS V14.01,2013-09-26 11:15:00,
2013-09-26 06:17:00,56.5,55.9,30.00,North,360,0.0,0.0,98,0.00,,CLR,0.00,VWS V14.01,2013-09-26 11:17:00,
2013-09-26 06:20:00,56.6,56.0,30.00,NW,323,0.0,0.0,98,0.00,,CLR,0.00,VWS V14.01,2013-09-26 11:20:00,
2013-09-26 06:22:00,56.6,55.8,30.00,NW,323,0.0,0.0,97,0.00,,CLR,0.00,VWS V14.01,2013-09-26 11:22:00,
2013-09-26 06:25:00,56.4,55.3,30.00,NW,323,0.0,0.0,96,0.00,,CLR,0.00,VWS V14.01,2013-09-26 11:25:00,
2013-09-26 06:27:00,56.1,54.7,30.00,North,360,0.0,0.0,95,0.00,,CLR,0.00,VWS V14.01,2013-09-26 11:27:00,
2013-09-26 06:30:00,56.0,54.9,30.00,NW,323,0.0,0.0,96,0.00,,CLR,0.00,VWS V14.01,2013-09-26 11:30:00,
2013-09-26 06:32:00,55.8,54.4,30.00,SE,130,0.0,0.0,95,0.00,,CLR,0.00,VWS V14.01,2013-09-26 11:32:00,
2013-09-26 06:35:00,55.9,54.8,30.00,SE,125,0.0,0.0,96,0.00,,CLR,0.00,VWS V14.01,2013-09-26 11:35:00,
2013-09-26 06:37:00,56.2,55.1,30.00,SE,125,0.0,0.0,96,0.00,,CLR,0.00,VWS V14.01,2013-09-26 11:37:00,
2013-09-26 06:40:00,56.1,55.0,30.00,SE,125,0.0,0.0,96,0.00,,CLR,0.00,VWS V14.01,2013-09-26 11:40:00,
2013-09-26 06:42:00,55.9,54.5,30.00,SE,125,0.0,0.0,95,0.00,,CLR,0.00,VWS V14.01,2013-09-26 11:42:00,
2013-09-26 06:45:00,55.6,54.2,30.00,SE,126,0.0,0.0,95,0.00,,CLR,0.00,VWS V14.01,2013-09-26 11:45:00,
2013-09-26 06:47:00,55.1,53.4,30.00,SE,125,0.0,0.0,94,0.00,,CLR,0.00,VWS V14.01,2013-09-26 11:47:00,
2013-09-26 06:50:00,54.9,53.2,30.00,SE,125,0.0,0.0,94,0.00,,CLR,0.00,VWS V14.01,2013-09-26 11:50:00,
2013-09-26 06:52:00,54.6,52.9,30.00,SE,125,0.0,0.0,94,0.00,,CLR,0.00,VWS V14.01,2013-09-26 11:52:00,
2013-09-26 06:55:00,54.7,53.3,30.00,SE,125,0.0,0.0,95,0.00,,CLR,0.00,VWS V14.01,2013-09-26 11:55:00,
2013-09-26 06:57:00,54.7,53.0,30.00,SE,124,0.0,0.0,94,0.00,,CLR,0.00,VWS V14.01,2013-09-26 11:57:00,
2013-09-26 07:00:00,54.7,53.3,30.00,SE,125,0.0,0.0,95,0.00,,CLR,0.00,VWS V14.01,2013-09-26 12:00:00,
2013-09-26 07:03:00,54.9,53.5,30.00,SE,125,0.0,0.0,95,0.00,,,0.00,VWS V14.01,2013-09-26 12:03:00,
2013-09-26 07:05:00,55.0,53.6,30.00,SE,125,0.0,0.0,95,0.00,,CLR,0.00,VWS V14.01,2013-09-26 12:05:00,
2013-09-26 07:08:00,54.9,53.2,30.00,SE,125,0.0,0.0,94,0.00,,,0.00,VWS V14.01,2013-09-26 12:08:00,
2013-09-26 07:10:00,54.8,53.1,30.00,SE,125,0.0,0.0,94,0.00,,CLR,0.00,VWS V14.01,2013-09-26 12:10:00,
2013-09-26 07:13:00,54.4,52.1,30.01,SE,125,0.0,0.0,92,0.00,,,0.00,VWS V14.01,2013-09-26 12:13:00,
2013-09-26 07:15:00,54.1,51.8,30.01,SE,125,0.0,0.0,92,0.00,,CLR,0.00,VWS V14.01,2013-09-26 12:15:00,
2013-09-26 07:18:00,53.7,51.4,30.01,SE,125,0.0,0.0,92,0.00,,,0.00,VWS V14.01,2013-09-26 12:18:00,
2013-09-26 07:20:00,53.5,51.2,30.01,SE,125,0.0,0.0,92,0.00,,CLR,0.00,VWS V14.01,2013-09-26 12:20:00,
2013-09-26 07:23:00,53.4,51.1,30.01,SE,125,0.0,0.0,92,0.00,,,0.00,VWS V14.01,2013-09-26 12:23:00,
2013-09-26 07:25:00,53.3,51.0,30.01,SE,125,0.0,0.0,92,0.00,,CLR,0.00,VWS V14.01,2013-09-26 12:25:00,
2013-09-26 07:28:00,53.3,51.3,30.01,SE,125,0.0,0.0,93,0.00,,,0.00,VWS V14.01,2013-09-26 12:28:00,
2013-09-26 07:30:00,53.2,51.2,30.01,SE,125,0.0,0.0,93,0.00,,CLR,0.00,VWS V14.01,2013-09-26 12:30:00,
2013-09-26 07:33:00,53.2,51.2,30.01,SE,125,0.0,0.0,93,0.00,,,0.00,VWS V14.01,2013-09-26 12:33:00,
2013-09-26 07:35:00,53.2,51.2,30.01,SE,125,0.0,0.0,93,0.00,,CLR,0.00,VWS V14.01,2013-09-26 12:35:00,
2013-09-26 07:38:00,53.3,51.3,30.01,SE,125,0.0,0.0,93,0.00,,,0.00,VWS V14.01,2013-09-26 12:38:00,
2013-09-26 07:40:00,53.3,51.3,30.01,SE,125,0.0,0.0,93,0.00,,CLR,0.00,VWS V14.01,2013-09-26 12:40:00,
2013-09-26 07:43:00,53.5,51.5,30.01,SE,125,0.0,0.0,93,0.00,,,0.00,VWS V14.01,2013-09-26 12:43:00,
2013-09-26 07:45:00,53.5,51.8,30.01,SE,125,0.0,0.0,94,0.00,,CLR,0.00,VWS V14.01,2013-09-26 12:45:00,
2013-09-26 07:48:00,53.7,52.0,30.02,SE,125,0.0,0.0,94,0.00,,,0.00,VWS V14.01,2013-09-26 12:48:00,
2013-09-26 07:50:00,53.8,52.1,30.01,SE,125,0.0,0.0,94,0.00,,CLR,0.00,VWS V14.01,2013-09-26 12:50:00,
2013-09-26 07:53:00,54.1,52.4,30.02,SE,125,0.0,0.0,94,0.00,,,0.00,VWS V14.01,2013-09-26 12:53:00,
2013-09-26 07:55:00,54.2,52.5,30.02,SE,125,0.0,0.0,94,0.00,,CLR,0.00,VWS V14.01,2013-09-26 12:55:00,
2013-09-26 07:58:00,54.6,52.9,30.01,SE,125,0.0,0.0,94,0.00,,,0.00,VWS V14.01,2013-09-26 12:58:00,
2013-09-26 08:00:00,54.8,53.1,30.01,SE,125,0.0,0.0,94,0.00,,CLR,0.00,VWS V14.01,2013-09-26 13:00:00,
2013-09-26 08:03:00,55.3,53.9,30.01,SE,125,0.0,0.0,95,0.00,,,0.00,VWS V14.01,2013-09-26 13:03:00,
2013-09-26 08:05:00,55.6,54.2,30.01,SE,125,0.0,0.0,95,0.00,,CLR,0.00,VWS V14.01,2013-09-26 13:05:00,
2013-09-26 08:08:00,56.0,54.6,30.01,SE,125,0.0,0.0,95,0.00,,,0.00,VWS V14.01,2013-09-26 13:08:00,
2013-09-26 08:10:00,56.3,54.9,30.01,SE,125,0.0,0.0,95,0.00,,CLR,0.00,VWS V14.01,2013-09-26 13:10:00,
2013-09-26 08:13:00,56.9,55.5,30.01,SE,125,0.0,0.0,95,0.00,,,0.00,VWS V14.01,2013-09-26 13:13:00,
2013-09-26 08:15:00,57.2,55.5,30.01,SE,125,0.0,0.0,94,0.00,,CLR,0.00,VWS V14.01,2013-09-26 13:15:00,
2013-09-26 08:18:00,57.7,56.0,30.01,SE,125,0.0,0.0,94,0.00,,,0.00,VWS V14.01,2013-09-26 13:18:00,
2013-09-26 08:20:00,57.9,56.2,30.01,SE,125,0.0,0.0,94,0.00,,CLR,0.00,VWS V14.01,2013-09-26 13:20:00,
2013-09-26 08:23:00,58.5,56.5,30.01,SE,125,0.0,0.0,93,0.00,,,0.00,VWS V14.01,2013-09-26 13:23:00,
2013-09-26 08:25:00,58.6,56.6,30.02,SE,125,0.0,0.0,93,0.00,,CLR,0.00,VWS V14.01,2013-09-26 13:25:00,
2013-09-26 08:28:00,59.3,57.3,30.02,SE,125,0.0,0.0,93,0.00,,,0.00,VWS V14.01,2013-09-26 13:28:00,
2013-09-26 08:30:00,59.5,57.2,30.02,SE,125,0.0,0.0,92,0.00,,CLR,0.00,VWS V14.01,2013-09-26 13:30:00,
2013-09-26 08:33:00,60.2,57.9,30.02,SE,125,0.0,0.0,92,0.00,,,0.00,VWS V14.01,2013-09-26 13:33:00,
2013-09-26 08:35:00,60.4,58.1,30.02,SE,125,0.0,0.0,92,0.00,,CLR,0.00,VWS V14.01,2013-09-26 13:35:00,
2013-09-26 08:38:00,61.1,58.5,30.02,SE,125,0.0,0.0,91,0.00,,,0.00,VWS V14.01,2013-09-26 13:38:00,
2013-09-26 08:40:00,61.3,58.7,30.02,SE,125,0.0,0.0,91,0.00,,CLR,0.00,VWS V14.01,2013-09-26 13:40:00,
2013-09-26 08:43:00,61.9,58.9,30.02,SE,125,0.0,0.0,90,0.00,,,0.00,VWS V14.01,2013-09-26 13:43:00,
2013-09-26 08:45:00,62.0,59.0,30.02,SE,125,0.0,0.0,90,0.00,,CLR,0.00,VWS V14.01,2013-09-26 13:45:00,
2013-09-26 08:49:00,62.6,59.3,30.02,SE,125,0.0,0.0,89,0.00,,,0.00,VWS V14.01,2013-09-26 13:49:00,
2013-09-26 08:50:00,62.8,59.5,30.02,SE,125,0.0,0.0,89,0.00,,CLR,0.00,VWS V14.01,2013-09-26 13:50:00,
2013-09-26 08:54:00,63.5,60.5,30.02,SE,125,0.0,0.0,90,0.00,,,0.00,VWS V14.01,2013-09-26 13:54:00,
2013-09-26 08:55:00,63.8,60.8,30.02,SE,125,0.0,0.0,90,0.00,,CLR,0.00,VWS V14.01,2013-09-26 13:55:00,
2013-09-26 08:59:00,65.0,62.0,30.02,SE,141,1.0,3.0,90,0.00,,,0.00,VWS V14.01,2013-09-26 13:59:00,
2013-09-26 09:00:00,65.2,61.9,30.02,ESE,120,1.0,3.0,89,0.00,,CLR,0.00,VWS V14.01,2013-09-26 14:00:00,
2013-09-26 09:04:00,65.8,61.8,30.02,ESE,121,3.0,7.0,87,0.00,,CLR,0.00,VWS V14.01,2013-09-26 14:04:00,
2013-09-26 09:05:00,65.8,61.8,30.02,SSE,157,2.0,7.0,87,0.00,,CLR,0.00,VWS V14.01,2013-09-26 14:05:00,
2013-09-26 09:09:00,66.0,61.7,30.02,SE,132,0.0,8.0,86,0.00,,CLR,0.00,VWS V14.01,2013-09-26 14:09:00,
2013-09-26 09:10:00,66.0,61.7,30.02,SE,132,0.0,8.0,86,0.00,,CLR,0.00,VWS V14.01,2013-09-26 14:10:00,
2013-09-26 09:14:00,66.3,62.0,30.02,ESE,123,0.0,7.0,86,0.00,,CLR,0.00,VWS V14.01,2013-09-26 14:14:00,
2013-09-26 09:15:00,66.4,61.8,30.02,SE,132,0.0,11.0,85,0.00,,CLR,0.00,VWS V14.01,2013-09-26 14:15:00,
2013-09-26 09:19:00,66.6,62.0,30.02,ESE,111,0.0,11.0,85,0.01,,CLR,0.01,VWS V14.01,2013-09-26 14:19:00,
2013-09-26 09:20:00,66.7,62.0,30.02,ESE,111,0.0,7.0,85,0.01,,CLR,0.01,VWS V14.01,2013-09-26 14:20:00,
2013-09-26 09:24:00,67.2,62.5,30.02,East,85,3.0,3.0,85,0.01,,CLR,0.01,VWS V14.01,2013-09-26 14:24:00,
2013-09-26 09:25:00,67.3,62.3,30.02,ESE,109,0.0,3.0,84,0.01,,CLR,0.01,VWS V14.01,2013-09-26 14:25:00,
2013-09-26 09:29:00,67.7,62.0,30.02,ESE,121,0.0,4.0,82,0.01,,CLR,0.01,VWS V14.01,2013-09-26 14:29:00,
2013-09-26 09:30:00,67.8,62.1,30.02,SE,124,0.0,4.0,82,0.01,,CLR,0.01,VWS V14.01,2013-09-26 14:30:00,
2013-09-26 09:34:00,68.3,62.2,30.02,SE,140,0.0,1.0,81,0.01,,CLR,0.01,VWS V14.01,2013-09-26 14:34:00,
2013-09-26 09:35:00,68.4,62.3,30.02,South,187,0.0,3.0,81,0.01,,CLR,0.01,VWS V14.01,2013-09-26 14:35:00,
2013-09-26 09:39:00,68.6,62.2,30.02,SE,130,0.0,8.0,80,0.01,,CLR,0.01,VWS V14.01,2013-09-26 14:39:00,
2013-09-26 09:40:00,68.6,62.2,30.02,SE,130,0.0,8.0,80,0.01,,CLR,0.01,VWS V14.01,2013-09-26 14:40:00,
2013-09-26 09:44:00,68.7,62.3,30.02,ESE,121,3.0,3.0,80,0.01,,CLR,0.01,VWS V14.01,2013-09-26 14:44:00,
2013-09-26 09:45:00,68.7,62.3,30.02,ESE,117,8.0,8.0,80,0.01,,CLR,0.01,VWS V14.01,2013-09-26 14:45:00,
2013-09-26 09:49:00,68.6,61.8,30.02,East,87,0.0,7.0,79,0.01,,CLR,0.01,VWS V14.01,2013-09-26 14:49:00,
2013-09-26 09:50:00,68.6,61.8,30.02,East,101,0.0,7.0,79,0.01,,CLR,0.01,VWS V14.01,2013-09-26 14:50:00,
2013-09-26 09:54:00,68.5,61.7,30.02,ESE,120,5.0,8.0,79,0.01,,CLR,0.01,VWS V14.01,2013-09-26 14:54:00,
2013-09-26 09:55:00,68.5,61.7,30.02,ESE,114,3.0,8.0,79,0.01,,CLR,0.01,VWS V14.01,2013-09-26 14:55:00,
2013-09-26 09:59:00,68.4,61.6,30.02,SE,146,0.0,5.0,79,0.01,,CLR,0.01,VWS V14.01,2013-09-26 14:59:00,
2013-09-26 10:00:00,68.4,61.6,30.02,SE,146,0.0,5.0,79,0.01,,CLR,0.01,VWS V14.01,2013-09-26 15:00:00,
2013-09-26 10:04:00,68.6,61.8,30.02,South,182,0.0,1.0,79,0.01,,FEW020,0.01,VWS V14.01,2013-09-26 15:04:00,
2013-09-26 10:05:00,68.6,61.8,30.02,South,182,0.0,1.0,79,0.01,,CLR,0.01,VWS V14.01,2013-09-26 15:05:00,
2013-09-26 10:09:00,68.9,61.8,30.02,ESE,111,0.0,3.0,78,0.01,,FEW020,0.01,VWS V14.01,2013-09-26 15:09:00,
2013-09-26 10:10:00,68.9,61.8,30.02,ESE,105,0.0,3.0,78,0.01,,CLR,0.01,VWS V14.01,2013-09-26 15:10:00,
2013-09-26 10:14:00,69.3,61.8,30.02,ESE,115,0.0,0.0,77,0.01,,FEW020,0.01,VWS V14.01,2013-09-26 15:14:00,
2013-09-26 10:15:00,69.3,61.8,30.02,ESE,115,0.0,0.0,77,0.01,,CLR,0.01,VWS V14.01,2013-09-26 15:15:00,
2013-09-26 10:19:00,69.6,61.7,30.02,SE,126,1.0,5.0,76,0.01,,FEW020,0.01,VWS V14.01,2013-09-26 15:19:00,
2013-09-26 10:20:00,69.6,61.7,30.02,SE,126,1.0,5.0,76,0.01,,CLR,0.01,VWS V14.01,2013-09-26 15:20:00,
2013-09-26 10:25:00,68.9,61.0,30.02,SSE,150,3.0,8.0,76,0.00,,FEW020,0.01,VWS V14.01,2013-09-26 15:25:00,
2013-09-26 10:30:00,68.1,61.0,30.02,ESE,107,4.0,10.0,78,0.00,,FEW020,0.01,VWS V14.01,2013-09-26 15:30:00,
2013-09-26 10:35:00,67.6,60.9,30.02,ESE,117,5.0,8.0,79,0.00,,FEW020,0.01,VWS V14.01,2013-09-26 15:35:00,
2013-09-26 10:40:00,67.5,60.8,30.02,SE,125,5.0,9.0,79,0.00,,FEW020,0.01,VWS V14.01,2013-09-26 15:40:00,
2013-09-26 10:45:00,67.5,60.8,30.02,ESE,123,3.0,8.0,79,0.00,,FEW020,0.01,VWS V14.01,2013-09-26 15:45:00,
2013-09-26 10:50:00,67.2,60.5,30.02,SE,126,5.0,10.0,79,0.00,,FEW020,0.01,VWS V14.01,2013-09-26 15:50:00,
2013-09-26 10:55:00,67.0,60.6,30.02,ESE,118,3.0,8.0,80,0.00,,FEW020,0.01,VWS V14.01,2013-09-26 15:55:00,
2013-09-26 11:00:00,67.4,60.7,30.02,ESE,118,0.0,7.0,79,0.00,,FEW025,0.01,VWS V14.01,2013-09-26 16:00:00,
2013-09-26 11:05:00,67.5,60.8,30.02,SE,138,4.0,9.0,79,0.00,,FEW025,0.01,VWS V14.01,2013-09-26 16:05:00,
2013-09-26 11:10:00,67.4,60.7,30.02,ESE,115,2.0,9.0,79,0.00,,FEW025,0.01,VWS V14.01,2013-09-26 16:10:00,
2013-09-26 11:15:00,67.5,61.1,30.02,ESE,121,2.0,8.0,80,0.00,,CLR,0.01,VWS V14.01,2013-09-26 16:15:00,
2013-09-26 11:16:00,67.5,60.8,30.02,SE,124,3.0,8.0,79,0.00,,FEW025,0.01,VWS V14.01,2013-09-26 16:16:00,
2013-09-26 11:20:00,67.3,60.6,30.02,SE,125,7.0,9.0,79,0.00,,CLR,0.01,VWS V14.01,2013-09-26 16:20:00,
2013-09-26 11:21:00,67.2,60.5,30.02,SE,126,5.0,9.0,79,0.00,,FEW025,0.01,VWS V14.01,2013-09-26 16:21:00,
2013-09-26 11:25:00,67.1,60.7,30.02,ESE,122,3.0,8.0,80,0.00,,CLR,0.01,VWS V14.01,2013-09-26 16:25:00,
2013-09-26 11:26:00,67.1,60.7,30.02,ESE,122,5.0,7.0,80,0.00,,FEW025,0.01,VWS V14.01,2013-09-26 16:26:00,
2013-09-26 11:30:00,67.0,60.6,30.02,SSE,152,5.0,8.0,80,0.00,,CLR,0.01,VWS V14.01,2013-09-26 16:30:00,
2013-09-26 11:31:00,67.0,60.6,30.02,SE,125,3.0,8.0,80,0.00,,FEW025,0.01,VWS V14.01,2013-09-26 16:31:00,
2013-09-26 11:35:00,67.0,60.6,30.02,ESE,122,4.0,9.0,80,0.00,,CLR,0.01,VWS V14.01,2013-09-26 16:35:00,
2013-09-26 11:36:00,67.0,60.6,30.02,ESE,119,3.0,9.0,80,0.00,,FEW025,0.01,VWS V14.01,2013-09-26 16:36:00,
2013-09-26 11:40:00,67.3,60.9,30.02,SE,128,4.0,9.0,80,0.00,,CLR,0.01,VWS V14.01,2013-09-26 16:40:00,
2013-09-26 11:41:00,67.3,60.6,30.02,SE,134,4.0,9.0,79,0.00,,FEW025,0.01,VWS V14.01,2013-09-26 16:41:00,
2013-09-26 11:45:00,67.2,60.5,30.02,SE,130,5.0,9.0,79,0.00,,CLR,0.01,VWS V14.01,2013-09-26 16:45:00,
2013-09-26 11:46:00,67.2,60.5,30.02,SE,126,5.0,9.0,79,0.00,,FEW025,0.01,VWS V14.01,2013-09-26 16:46:00,
2013-09-26 11:50:00,67.2,60.5,30.02,South,169,4.0,9.0,79,0.00,,CLR,0.01,VWS V14.01,2013-09-26 16:50:00,
2013-09-26 11:51:00,67.1,60.4,30.02,ESE,115,4.0,9.0,79,0.00,,FEW025,0.01,VWS V14.01,2013-09-26 16:51:00,
2013-09-26 11:55:00,67.1,60.7,30.02,SE,126,6.0,9.0,80,0.00,,CLR,0.01,VWS V14.01,2013-09-26 16:55:00,
2013-09-26 11:56:00,67.1,60.4,30.02,SE,128,5.0,8.0,79,0.00,,FEW025,0.01,VWS V14.01,2013-09-26 16:56:00,
2013-09-26 12:00:00,67.2,60.5,30.02,ESE,123,0.0,8.0,79,0.00,,CLR,0.01,VWS V14.01,2013-09-26 17:00:00,
2013-09-26 12:01:00,67.3,60.6,30.02,ESE,107,7.0,10.0,79,0.00,,FEW025,0.01,VWS V14.01,2013-09-26 17:01:00,
2013-09-26 12:05:00,67.4,60.7,30.02,ESE,120,5.0,8.0,79,0.00,,CLR,0.01,VWS V14.01,2013-09-26 17:05:00,
2013-09-26 12:06:00,67.4,60.7,30.02,ESE,121,3.0,9.0,79,0.00,,FEW025,0.01,VWS V14.01,2013-09-26 17:06:00,
2013-09-26 12:10:00,67.4,60.7,30.02,ESE,113,5.0,9.0,79,0.00,,CLR,0.01,VWS V14.01,2013-09-26 17:10:00,
2013-09-26 12:12:00,67.3,60.2,30.02,ESE,120,7.0,10.0,78,0.00,,FEW025,0.01,VWS V14.01,2013-09-26 17:12:00,
2013-09-26 12:15:00,67.3,60.2,30.02,ESE,111,5.0,7.0,78,0.00,,CLR,0.01,VWS V14.01,2013-09-26 17:15:00,
2013-09-26 12:17:00,67.2,60.5,30.02,SE,126,6.0,7.0,79,0.00,,FEW025,0.01,VWS V14.01,2013-09-26 17:17:00,
2013-09-26 12:20:00,67.2,60.5,30.02,East,101,5.0,7.0,79,0.00,,CLR,0.01,VWS V14.01,2013-09-26 17:20:00,
2013-09-26 12:22:00,67.2,60.5,30.02,SE,124,2.0,9.0,79,0.00,,FEW025,0.01,VWS V14.01,2013-09-26 17:22:00,
2013-09-26 12:25:00,67.2,60.5,30.02,ESE,121,2.0,9.0,79,0.00,,CLR,0.01,VWS V14.01,2013-09-26 17:25:00,
2013-09-26 12:27:00,67.3,60.9,30.02,ESE,109,0.0,8.0,80,0.00,,FEW025,0.01,VWS V14.01,2013-09-26 17:27:00,
2013-09-26 12:30:00,67.6,61.2,30.02,ESE,118,2.0,5.0,80,0.00,,CLR,0.01,VWS V14.01,2013-09-26 17:30:00,
2013-09-26 12:32:00,67.7,60.6,30.02,SE,128,5.0,7.0,78,0.00,,FEW025,0.01,VWS V14.01,2013-09-26 17:32:00,
2013-09-26 12:35:00,67.4,60.3,30.02,ESE,119,4.0,10.0,78,0.00,,CLR,0.01,VWS V14.01,2013-09-26 17:35:00,
2013-09-26 12:37:00,67.2,60.5,30.02,ESE,116,7.0,10.0,79,0.00,,FEW025,0.01,VWS V14.01,2013-09-26 17:37:00,
2013-09-26 12:40:00,67.1,60.7,30.02,SE,128,5.0,8.0,80,0.00,,CLR,0.01,VWS V14.01,2013-09-26 17:40:00,
2013-09-26 12:42:00,67.0,60.6,30.02,SE,124,3.0,8.0,80,0.00,,FEW025,0.01,VWS V14.01,2013-09-26 17:42:00,
2013-09-26 12:45:00,67.0,60.6,30.02,ESE,119,4.0,8.0,80,0.00,,CLR,0.01,VWS V14.01,2013-09-26 17:45:00,
2013-09-26 12:47:00,67.0,60.6,30.02,SE,128,6.0,8.0,80,0.00,,FEW025,0.01,VWS V14.01,2013-09-26 17:47:00,
2013-09-26 12:50:00,66.9,60.5,30.02,ESE,111,3.0,8.0,80,0.00,,CLR,0.01,VWS V14.01,2013-09-26 17:50:00,
2013-09-26 12:53:00,66.9,60.5,30.02,SE,134,7.0,8.0,80,0.00,,FEW025,0.01,VWS V14.01,2013-09-26 17:53:00,
2013-09-26 12:55:00,66.9,60.5,30.02,ESE,119,4.0,8.0,80,0.00,,CLR,0.01,VWS V14.01,2013-09-26 17:55:00,
2013-09-26 12:58:00,66.8,60.4,30.02,South,182,6.0,7.0,80,0.00,,FEW025,0.01,VWS V14.01,2013-09-26 17:58:00,
2013-09-26 13:00:00,66.9,60.5,30.02,SE,144,0.0,7.0,80,0.00,,CLR,0.01,VWS V14.01,2013-09-26 18:00:00,
2013-09-26 13:03:00,67.2,61.2,30.02,ESE,122,3.0,7.0,81,0.00,,CLR,0.01,VWS V14.01,2013-09-26 18:03:00,
2013-09-26 13:05:00,67.2,60.8,30.02,ESE,121,0.0,7.0,80,0.00,,CLR,0.01,VWS V14.01,2013-09-26 18:05:00,
2013-09-26 13:08:00,67.5,61.5,30.02,SE,124,2.0,5.0,81,0.00,,CLR,0.01,VWS V14.01,2013-09-26 18:08:00,
2013-09-26 13:10:00,67.6,61.2,30.02,SE,127,0.0,4.0,80,0.00,,CLR,0.01,VWS V14.01,2013-09-26 18:10:00,
2013-09-26 13:13:00,67.9,61.5,30.02,SE,128,0.0,8.0,80,0.00,,CLR,0.01,VWS V14.01,2013-09-26 18:13:00,
2013-09-26 13:15:00,68.0,61.6,30.02,ESE,118,2.0,8.0,80,0.00,,CLR,0.01,VWS V14.01,2013-09-26 18:15:00,
2013-09-26 13:18:00,68.0,60.9,30.02,SSE,167,2.0,9.0,78,0.00,,CLR,0.01,VWS V14.01,2013-09-26 18:18:00,
2013-09-26 13:20:00,68.0,60.9,30.02,ESE,118,0.0,8.0,78,0.00,,CLR,0.01,VWS V14.01,2013-09-26 18:20:00,
2013-09-26 13:23:00,68.0,61.2,30.02,ESE,120,2.0,8.0,79,0.00,,CLR,0.01,VWS V14.01,2013-09-26 18:23:00,
2013-09-26 13:25:00,68.0,61.2,30.02,SE,139,0.0,8.0,79,0.00,,CLR,0.01,VWS V14.01,2013-09-26 18:25:00,
2013-09-26 13:28:00,67.8,61.1,30.02,SE,126,0.0,8.0,79,0.00,,CLR,0.01,VWS V14.01,2013-09-26 18:28:00,
2013-09-26 13:30:00,67.8,61.1,30.02,ESE,123,1.0,8.0,79,0.00,,CLR,0.01,VWS V14.01,2013-09-26 18:30:00,
2013-09-26 13:33:00,67.8,61.1,30.02,SE,130,4.0,6.0,79,0.00,,CLR,0.01,VWS V14.01,2013-09-26 18:33:00,
2013-09-26 13:35:00,67.7,61.0,30.02,ESE,118,0.0,9.0,79,0.00,,CLR,0.01,VWS V14.01,2013-09-26 18:35:00,
2013-09-26 13:38:00,67.6,60.9,30.02,ESE,121,3.0,9.0,79,0.00,,CLR,0.01,VWS V14.01,2013-09-26 18:38:00,
2013-09-26 13:40:00,67.5,60.8,30.02,SE,140,0.0,9.0,79,0.00,,CLR,0.01,VWS V14.01,2013-09-26 18:40:00,
2013-09-26 13:43:00,67.5,60.8,30.02,ESE,123,1.0,9.0,79,0.00,,CLR,0.01,VWS V14.01,2013-09-26 18:43:00,
2013-09-26 13:45:00,67.4,60.7,30.02,SE,135,3.0,10.0,79,0.00,,CLR,0.01,VWS V14.01,2013-09-26 18:45:00,
2013-09-26 13:48:00,67.1,60.7,30.02,SE,144,2.0,8.0,80,0.00,,CLR,0.01,VWS V14.01,2013-09-26 18:48:00,
2013-09-26 13:50:00,67.1,60.7,30.02,ESE,120,0.0,7.0,80,0.00,,CLR,0.01,VWS V14.01,2013-09-26 18:50:00,
2013-09-26 13:54:00,67.0,60.6,30.02,SE,129,6.0,9.0,80,0.00,,CLR,0.01,VWS V14.01,2013-09-26 18:54:00,
2013-09-26 13:55:00,67.0,60.6,30.02,ESE,119,3.0,10.0,80,0.00,,CLR,0.01,VWS V14.01,2013-09-26 18:55:00,
2013-09-26 13:59:00,66.9,60.5,30.01,ESE,117,0.0,8.0,80,0.00,,CLR,0.01,VWS V14.01,2013-09-26 18:59:00,
2013-09-26 14:00:00,66.9,60.5,30.01,ESE,120,7.0,8.0,80,0.00,,CLR,0.01,VWS V14.01,2013-09-26 19:00:00,
2013-09-26 14:04:00,67.0,60.3,30.01,ESE,113,3.0,9.0,79,0.00,,CLR,0.01,VWS V14.01,2013-09-26 19:04:00,
2013-09-26 14:05:00,67.0,60.3,30.01,ESE,110,0.0,9.0,79,0.00,,CLR,0.01,VWS V14.01,2013-09-26 19:05:00,
2013-09-26 14:09:00,67.1,59.7,30.01,ESE,123,0.0,10.0,77,0.00,,CLR,0.01,VWS V14.01,2013-09-26 19:09:00,
2013-09-26 14:10:00,67.1,59.7,30.01,ESE,123,5.0,10.0,77,0.00,,CLR,0.01,VWS V14.01,2013-09-26 19:10:00,
2013-09-26 14:14:00,67.3,59.8,30.01,SE,125,4.0,9.0,77,0.00,,CLR,0.01,VWS V14.01,2013-09-26 19:14:00,
2013-09-26 14:15:00,67.3,59.8,30.01,ESE,121,4.0,9.0,77,0.00,,CLR,0.01,VWS V14.01,2013-09-26 19:15:00,
2013-09-26 14:19:00,67.3,59.1,30.01,SE,135,0.0,8.0,75,0.00,,CLR,0.01,VWS V14.01,2013-09-26 19:19:00,
2013-09-26 14:20:00,67.3,59.1,30.01,SE,131,3.0,8.0,75,0.00,,CLR,0.01,VWS V14.01,2013-09-26 19:20:00,
2013-09-26 14:24:00,67.3,59.5,30.01,ESE,112,8.0,8.0,76,0.00,,CLR,0.01,VWS V14.01,2013-09-26 19:24:00,
2013-09-26 14:25:00,67.3,59.5,30.01,ESE,112,8.0,8.0,76,0.00,,CLR,0.01,VWS V14.01,2013-09-26 19:25:00,
2013-09-26 14:29:00,67.3,60.2,30.01,SE,126,0.0,7.0,78,0.00,,CLR,0.01,VWS V14.01,2013-09-26 19:29:00,
2013-09-26 14:30:00,67.3,60.2,30.01,SE,126,0.0,7.0,78,0.00,,CLR,0.01,VWS V14.01,2013-09-26 19:30:00,
2013-09-26 14:34:00,67.5,59.7,30.01,SSE,150,0.0,9.0,76,0.00,,CLR,0.01,VWS V14.01,2013-09-26 19:34:00,
2013-09-26 14:35:00,67.5,59.7,30.01,SSE,150,0.0,9.0,76,0.00,,CLR,0.01,VWS V14.01,2013-09-26 19:35:00,
2013-09-26 14:39:00,67.5,59.3,30.01,SE,136,4.0,10.0,75,0.00,,CLR,0.01,VWS V14.01,2013-09-26 19:39:00,
2013-09-26 14:40:00,67.5,59.3,30.01,SE,136,4.0,10.0,75,0.00,,CLR,0.01,VWS V14.01,2013-09-26 19:40:00,
2013-09-26 14:44:00,67.4,58.8,30.01,SE,124,0.0,8.0,74,0.00,,CLR,0.01,VWS V14.01,2013-09-26 19:44:00,
2013-09-26 14:45:00,67.4,58.8,30.01,SE,124,0.0,8.0,74,0.00,,CLR,0.01,VWS V14.01,2013-09-26 19:45:00,
2013-09-26 14:49:00,67.5,59.3,30.01,SE,143,0.0,7.0,75,0.00,,CLR,0.01,VWS V14.01,2013-09-26 19:49:00,
2013-09-26 14:50:00,67.5,59.3,30.01,SE,143,0.0,7.0,75,0.00,,CLR,0.01,VWS V14.01,2013-09-26 19:50:00,
2013-09-26 14:54:00,67.4,58.8,30.01,ESE,113,4.0,11.0,74,0.00,,CLR,0.01,VWS V14.01,2013-09-26 19:54:00,
2013-09-26 14:55:00,67.4,58.8,30.01,ESE,113,4.0,11.0,74,0.00,,CLR,0.01,VWS V14.01,2013-09-26 19:55:00,
2013-09-26 15:00:00,67.5,58.5,30.01,SSE,155,4.0,8.0,73,0.00,,CLR,0.01,VWS V14.01,2013-09-26 20:00:00,
2013-09-26 15:05:00,67.3,58.4,30.01,SE,126,5.0,10.0,73,0.00,,CLR,0.01,VWS V14.01,2013-09-26 20:05:00,
2013-09-26 15:10:00,67.2,58.6,30.01,ESE,123,3.0,9.0,74,0.00,,CLR,0.01,VWS V14.01,2013-09-26 20:10:00,
2013-09-26 15:15:00,67.2,59.0,30.01,SE,136,0.0,8.0,75,0.00,,CLR,0.01,VWS V14.01,2013-09-26 20:15:00,
2013-09-26 15:20:00,67.4,59.2,30.01,ESE,119,2.0,8.0,75,0.00,,CLR,0.01,VWS V14.01,2013-09-26 20:20:00,
2013-09-26 15:25:00,67.3,58.7,30.01,SE,138,0.0,10.0,74,0.00,,CLR,0.01,VWS V14.01,2013-09-26 20:25:00,
2013-09-26 15:30:00,67.4,59.6,30.01,East,98,5.0,8.0,76,0.00,,CLR,0.01,VWS V14.01,2013-09-26 20:30:00,
2013-09-26 15:35:00,67.2,58.6,30.01,SE,140,2.0,9.0,74,0.00,,CLR,0.01,VWS V14.01,2013-09-26 20:35:00,
2013-09-26 15:36:00,67.2,58.3,30.01,ESE,117,2.0,9.0,73,0.00,,CLR,0.01,VWS V14.01,2013-09-26 20:36:00,
2013-09-26 15:40:00,67.1,58.5,30.01,ESE,117,0.0,8.0,74,0.00,,CLR,0.01,VWS V14.01,2013-09-26 20:40:00,
2013-09-26 15:41:00,67.1,58.5,30.01,SE,134,0.0,8.0,74,0.00,,CLR,0.01,VWS V14.01,2013-09-26 20:41:00,
2013-09-26 15:45:00,67.2,59.0,30.01,ESE,119,0.0,8.0,75,0.00,,CLR,0.01,VWS V14.01,2013-09-26 20:45:00,
2013-09-26 15:46:00,67.2,59.0,30.01,SE,138,3.0,8.0,75,0.00,,CLR,0.01,VWS V14.01,2013-09-26 20:46:00,
2013-09-26 15:50:00,67.1,58.9,30.01,ESE,122,4.0,5.0,75,0.00,,CLR,0.01,VWS V14.01,2013-09-26 20:50:00,
2013-09-26 15:51:00,67.1,58.9,30.01,SE,140,4.0,7.0,75,0.00,,CLR,0.01,VWS V14.01,2013-09-26 20:51:00,
2013-09-26 15:55:00,67.1,58.5,30.01,ESE,120,4.0,7.0,74,0.00,,CLR,0.01,VWS V14.01,2013-09-26 20:55:00,
2013-09-26 15:56:00,67.1,58.5,30.01,ESE,123,3.0,7.0,74,0.00,,CLR,0.01,VWS V14.01,2013-09-26 20:56:00,
2013-09-26 16:00:00,67.1,58.5,30.01,SE,131,4.0,8.0,74,0.00,,CLR,0.01,VWS V14.01,2013-09-26 21:00:00,
2013-09-26 16:01:00,67.1,59.3,30.01,ESE,116,4.0,8.0,76,0.00,,CLR,0.01,VWS V14.01,2013-09-26 21:01:00,
2013-09-26 16:05:00,67.1,58.5,30.01,ESE,116,1.0,9.0,74,0.00,,CLR,0.01,VWS V14.01,2013-09-26 21:05:00,
2013-09-26 16:06:00,67.1,58.9,30.01,ESE,119,0.0,9.0,75,0.00,,CLR,0.01,VWS V14.01,2013-09-26 21:06:00,
2013-09-26 16:10:00,67.1,58.5,30.01,ESE,121,1.0,7.0,74,0.00,,CLR,0.01,VWS V14.01,2013-09-26 21:10:00,
2013-09-26 16:11:00,67.1,58.9,30.01,SE,137,3.0,7.0,75,0.00,,CLR,0.01,VWS V14.01,2013-09-26 21:11:00,
2013-09-26 16:15:00,67.0,58.5,30.01,SE,130,0.0,8.0,74,0.00,,CLR,0.01,VWS V14.01,2013-09-26 21:15:00,
2013-09-26 16:16:00,66.9,58.0,30.01,SE,136,4.0,8.0,73,0.00,,CLR,0.01,VWS V14.01,2013-09-26 21:16:00,
2013-09-26 16:20:00,66.9,58.0,30.01,ESE,117,2.0,9.0,73,0.00,,CLR,0.01,VWS V14.01,2013-09-26 21:20:00,
2013-09-26 16:22:00,66.8,57.9,30.01,ESE,111,3.0,9.0,73,0.00,,CLR,0.01,VWS V14.01,2013-09-26 21:22:00,
2013-09-26 16:25:00,66.7,58.2,30.01,ESE,123,1.0,8.0,74,0.00,,CLR,0.01,VWS V14.01,2013-09-26 21:25:00,
2013-09-26 16:27:00,66.7,58.9,30.01,ESE,105,4.0,9.0,76,0.00,,CLR,0.01,VWS V14.01,2013-09-26 21:27:00,
2013-09-26 16:30:00,66.6,58.8,30.01,ESE,113,2.0,8.0,76,0.00,,CLR,0.01,VWS V14.01,2013-09-26 21:30:00,
2013-09-26 16:32:00,66.6,58.4,30.01,SE,126,0.0,8.0,75,0.00,,CLR,0.01,VWS V14.01,2013-09-26 21:32:00,
2013-09-26 16:35:00,66.6,58.4,30.01,ESE,110,3.0,8.0,75,0.00,,CLR,0.01,VWS V14.01,2013-09-26 21:35:00,
2013-09-26 16:37:00,66.6,58.4,30.01,East,85,6.0,8.0,75,0.00,,CLR,0.01,VWS V14.01,2013-09-26 21:37:00,
2013-09-26 16:40:00,66.6,58.8,30.01,East,96,0.0,8.0,76,0.00,,CLR,0.01,VWS V14.01,2013-09-26 21:40:00,
2013-09-26 16:43:00,66.7,58.9,30.01,East,96,6.0,7.0,76,0.00,,CLR,0.01,VWS V14.01,2013-09-26 21:43:00,
2013-09-26 16:45:00,66.6,58.4,30.01,ESE,123,0.0,7.0,75,0.00,,CLR,0.01,VWS V14.01,2013-09-26 21:45:00,
2013-09-26 16:48:00,66.6,58.8,30.01,East,94,0.0,7.0,76,0.00,,CLR,0.01,VWS V14.01,2013-09-26 21:48:00,
2013-09-26 16:50:00,66.7,58.5,30.01,ENE,75,0.0,6.0,75,0.00,,CLR,0.01,VWS V14.01,2013-09-26 21:50:00,
2013-09-26 16:53:00,66.7,58.2,30.01,ESE,123,4.0,6.0,74,0.00,,CLR,0.01,VWS V14.01,2013-09-26 21:53:00,
2013-09-26 16:55:00,66.8,58.3,30.01,East,91,0.0,6.0,74,0.00,,CLR,0.01,VWS V14.01,2013-09-26 21:55:00,
2013-09-26 16:58:00,67.0,58.8,30.01,SE,124,0.0,3.0,75,0.00,,CLR,0.01,VWS V14.01,2013-09-26 21:58:00,
2013-09-26 17:00:00,67.0,58.8,30.01,SE,128,0.0,4.0,75,0.00,,CLR,0.01,VWS V14.01,2013-09-26 22:00:00,
2013-09-26 17:03:00,67.1,59.3,30.01,ESE,109,3.0,3.0,76,0.00,,CLR,0.01,VWS V14.01,2013-09-26 22:03:00,
2013-09-26 17:05:00,67.1,58.9,30.01,ESE,106,0.0,5.0,75,0.00,,CLR,0.01,VWS V14.01,2013-09-26 22:05:00,
2013-09-26 17:08:00,67.1,58.5,30.01,East,80,0.0,8.0,74,0.00,,CLR,0.01,VWS V14.01,2013-09-26 22:08:00,
2013-09-26 17:10:00,67.0,58.5,30.01,East,98,0.0,8.0,74,0.00,,CLR,0.01,VWS V14.01,2013-09-26 22:10:00,
2013-09-26 17:13:00,66.9,58.3,30.01,East,96,0.0,6.0,74,0.00,,CLR,0.01,VWS V14.01,2013-09-26 22:13:00,
2013-09-26 17:15:00,66.9,58.3,30.01,ESE,117,0.0,3.0,74,0.00,,CLR,0.01,VWS V14.01,2013-09-26 22:15:00,
2013-09-26 17:18:00,66.9,58.7,30.01,SE,140,0.0,6.0,75,0.00,,CLR,0.01,VWS V14.01,2013-09-26 22:18:00,
2013-09-26 17:20:00,66.8,58.3,30.01,ESE,107,3.0,7.0,74,0.00,,CLR,0.01,VWS V14.01,2013-09-26 22:20:00,
2013-09-26 17:23:00,66.6,57.7,30.01,ESE,105,1.0,6.0,73,0.00,,CLR,0.01,VWS V14.01,2013-09-26 22:23:00,
2013-09-26 17:25:00,66.6,58.1,30.01,SE,126,0.0,6.0,74,0.00,,CLR,0.01,VWS V14.01,2013-09-26 22:25:00,
2013-09-26 17:28:00,66.6,58.4,30.01,East,98,0.0,3.0,75,0.00,,CLR,0.01,VWS V14.01,2013-09-26 22:28:00,
2013-09-26 17:30:00,66.6,58.1,30.01,ESE,107,0.0,3.0,74,0.00,,CLR,0.01,VWS V14.01,2013-09-26 22:30:00,
2013-09-26 17:33:00,66.7,57.8,30.01,ESE,103,3.0,8.0,73,0.00,,CLR,0.01,VWS V14.01,2013-09-26 22:33:00,
2013-09-26 17:35:00,66.6,58.1,30.01,ESE,111,0.0,8.0,74,0.00,,CLR,0.01,VWS V14.01,2013-09-26 22:35:00,
2013-09-26 17:38:00,66.7,58.2,30.02,ENE,78,0.0,4.0,74,0.00,,CLR,0.01,VWS V14.01,2013-09-26 22:38:00,
2013-09-26 17:40:00,66.7,58.2,30.01,ESE,103,1.0,4.0,74,0.00,,CLR,0.01,VWS V14.01,2013-09-26 22:40:00,
2013-09-26 17:43:00,66.6,57.7,30.02,ESE,111,3.0,6.0,73,0.00,,CLR,0.01,VWS V14.01,2013-09-26 22:43:00,
2013-09-26 17:45:00,66.5,57.6,30.02,SE,125,6.0,6.0,73,0.00,,CLR,0.01,VWS V14.01,2013-09-26 22:45:00,
2013-09-26 17:48:00,66.3,57.8,30.01,ESE,110,2.0,7.0,74,0.00,,CLR,0.01,VWS V14.01,2013-09-26 22:48:00,
2013-09-26 17:50:00,66.3,58.2,30.01,ESE,113,4.0,5.0,75,0.00,,CLR,0.01,VWS V14.01,2013-09-26 22:50:00,
2013-09-26 17:53:00,66.0,57.9,30.01,ESE,107,3.0,5.0,75,0.00,,CLR,0.01,VWS V14.01,2013-09-26 22:53:00,
2013-09-26 17:55:00,66.0,57.9,30.01,SE,127,2.0,5.0,75,0.00,,CLR,0.01,VWS V14.01,2013-09-26 22:55:00,
2013-09-26 17:58:00,65.8,57.7,30.01,ESE,110,2.0,9.0,75,0.00,,CLR,0.01,VWS V14.01,2013-09-26 22:58:00,
2013-09-26 18:00:00,65.7,57.9,30.01,ESE,103,2.0,7.0,76,0.00,,CLR,0.01,VWS V14.01,2013-09-26 23:00:00,
2013-09-26 18:04:00,65.6,57.8,30.01,ESE,102,2.0,8.0,76,0.00,,CLR,0.01,VWS V14.01,2013-09-26 23:04:00,
2013-09-26 18:05:00,65.6,57.8,30.01,ESE,113,2.0,5.0,76,0.00,,CLR,0.01,VWS V14.01,2013-09-26 23:05:00,
2013-09-26 18:09:00,65.4,57.7,30.01,ESE,113,0.0,8.0,76,0.00,,CLR,0.01,VWS V14.01,2013-09-26 23:09:00,
2013-09-26 18:10:00,65.3,57.5,30.01,ESE,105,2.0,8.0,76,0.00,,CLR,0.01,VWS V14.01,2013-09-26 23:10:00,
2013-09-26 18:14:00,65.2,57.1,30.01,ESE,115,3.0,6.0,75,0.00,,CLR,0.01,VWS V14.01,2013-09-26 23:14:00,
2013-09-26 18:15:00,65.2,57.1,30.01,ESE,115,0.0,5.0,75,0.00,,CLR,0.01,VWS V14.01,2013-09-26 23:15:00,
2013-09-26 18:19:00,65.1,57.0,30.01,ESE,106,0.0,7.0,75,0.00,,CLR,0.01,VWS V14.01,2013-09-26 23:19:00,
2013-09-26 18:20:00,65.1,57.0,30.01,SE,134,2.0,7.0,75,0.00,,CLR,0.01,VWS V14.01,2013-09-26 23:20:00,
2013-09-26 18:24:00,65.0,57.3,30.01,ESE,119,3.0,6.0,76,0.00,,CLR,0.01,VWS V14.01,2013-09-26 23:24:00,
2013-09-26 18:25:00,64.9,56.8,30.01,ESE,105,2.0,6.0,75,0.00,,CLR,0.01,VWS V14.01,2013-09-26 23:25:00,
2013-09-26 18:29:00,64.7,57.0,30.01,ESE,103,1.0,9.0,76,0.00,,CLR,0.01,VWS V14.01,2013-09-26 23:29:00,
2013-09-26 18:30:00,64.7,57.0,30.01,ESE,120,4.0,9.0,76,0.00,,CLR,0.01,VWS V14.01,2013-09-26 23:30:00,
2013-09-26 18:34:00,64.6,56.9,30.00,ESE,113,0.0,5.0,76,0.00,,CLR,0.01,VWS V14.01,2013-09-26 23:34:00,
2013-09-26 18:35:00,64.5,56.8,30.00,ESE,113,0.0,5.0,76,0.00,,CLR,0.01,VWS V14.01,2013-09-26 23:35:00,
2013-09-26 18:39:00,64.4,57.0,30.00,East,90,0.0,6.0,77,0.00,,CLR,0.01,VWS V14.01,2013-09-26 23:39:00,
2013-09-26 18:40:00,64.4,57.0,30.00,ESE,121,0.0,6.0,77,0.00,,CLR,0.01,VWS V14.01,2013-09-26 23:40:00,
2013-09-26 18:44:00,64.1,56.8,30.00,East,90,0.0,4.0,77,0.00,,CLR,0.01,VWS V14.01,2013-09-26 23:44:00,
2013-09-26 18:45:00,64.1,56.8,30.00,East,90,0.0,4.0,77,0.00,,CLR,0.01,VWS V14.01,2013-09-26 23:45:00,
2013-09-26 18:49:00,63.9,56.6,30.00,ESE,112,4.0,5.0,77,0.00,,CLR,0.01,VWS V14.01,2013-09-26 23:49:00,
2013-09-26 18:50:00,63.9,56.6,30.00,ESE,112,4.0,5.0,77,0.00,,CLR,0.01,VWS V14.01,2013-09-26 23:50:00,
2013-09-26 18:54:00,63.8,56.8,30.00,East,94,5.0,5.0,78,0.00,,CLR,0.01,VWS V14.01,2013-09-26 23:54:00,
2013-09-26 18:55:00,63.8,56.8,30.00,East,94,5.0,5.0,78,0.00,,CLR,0.01,VWS V14.01,2013-09-26 23:55:00,
2013-09-26 18:59:00,63.7,56.7,30.00,ESE,103,0.0,3.0,78,0.00,,CLR,0.01,VWS V14.01,2013-09-26 23:59:00,
2013-09-26 19:00:00,63.7,56.7,30.00,ESE,103,0.0,3.0,78,0.00,,CLR,0.01,VWS V14.01,2013-09-27 00:00:00,
2013-09-26 19:04:00,63.6,57.0,30.00,East,92,0.0,2.0,79,0.00,,CLR,0.01,VWS V14.01,2013-09-27 00:04:00,
2013-09-26 19:05:00,63.6,57.0,30.00,East,92,0.0,2.0,79,0.00,,CLR,0.01,VWS V14.01,2013-09-27 00:05:00,
2013-09-26 19:10:00,63.6,57.0,30.00,East,99,0.0,1.0,79,0.00,,CLR,0.01,VWS V14.01,2013-09-27 00:10:00,
2013-09-26 19:15:00,63.5,56.9,30.00,ENE,72,1.0,6.0,79,0.00,,CLR,0.01,VWS V14.01,2013-09-27 00:15:00,
2013-09-26 19:20:00,63.6,57.3,30.00,ENE,75,4.0,6.0,80,0.00,,CLR,0.01,VWS V14.01,2013-09-27 00:20:00,
2013-09-26 19:25:00,63.5,56.9,30.00,East,93,0.0,5.0,79,0.00,,CLR,0.01,VWS V14.01,2013-09-27 00:25:00,
2013-09-26 19:30:00,63.5,57.2,30.00,East,88,3.0,6.0,80,0.00,,CLR,0.01,VWS V14.01,2013-09-27 00:30:00,
2013-09-26 19:35:00,63.5,57.6,30.00,East,88,0.0,3.0,81,0.00,,CLR,0.01,VWS V14.01,2013-09-27 00:35:00,
2013-09-26 19:36:00,63.5,57.6,30.00,East,88,0.0,2.0,81,0.00,,CLR,0.01,VWS V14.01,2013-09-27 00:36:00,
2013-09-26 19:40:00,63.5,57.2,30.01,East,90,0.0,3.0,80,0.00,,CLR,0.01,VWS V14.01,2013-09-27 00:40:00,
2013-09-26 19:41:00,63.5,57.2,30.01,East,101,2.0,5.0,80,0.00,,CLR,0.01,VWS V14.01,2013-09-27 00:41:00,
2013-09-26 19:45:00,63.4,57.1,30.01,East,84,1.0,7.0,80,0.00,,CLR,0.01,VWS V14.01,2013-09-27 00:45:00,
2013-09-26 19:46:00,63.4,56.8,30.01,ESE,106,0.0,7.0,79,0.00,,CLR,0.01,VWS V14.01,2013-09-27 00:46:00,
2013-09-26 19:50:00,63.4,56.8,30.01,ENE,77,0.0,6.0,79,0.00,,CLR,0.01,VWS V14.01,2013-09-27 00:50:00,
2013-09-26 19:51:00,63.4,56.8,30.01,ENE,77,0.0,6.0,79,0.00,,CLR,0.01,VWS V14.01,2013-09-27 00:51:00,
2013-09-26 19:55:00,63.4,57.1,30.01,ENE,71,0.0,7.0,80,0.00,,CLR,0.01,VWS V14.01,2013-09-27 00:55:00,
2013-09-26 19:56:00,63.5,57.2,30.01,East,94,1.0,7.0,80,0.00,,CLR,0.01,VWS V14.01,2013-09-27 00:56:00,
2013-09-26 20:00:00,63.5,57.2,30.01,ENE,74,0.0,3.0,80,0.00,,CLR,0.01,VWS V14.01,2013-09-27 01:00:00,
2013-09-26 20:01:00,63.5,57.2,30.01,ENE,75,0.0,1.0,80,0.00,,CLR,0.01,VWS V14.01,2013-09-27 01:01:00,
2013-09-26 20:05:00,63.5,57.2,30.01,East,90,0.0,3.0,80,0.00,,CLR,0.01,VWS V14.01,2013-09-27 01:05:00,
2013-09-26 20:06:00,63.4,57.1,30.01,East,100,0.0,3.0,80,0.00,,CLR,0.01,VWS V14.01,2013-09-27 01:06:00,
2013-09-26 20:10:00,63.4,57.1,30.01,ESE,109,0.0,4.0,80,0.00,,CLR,0.01,VWS V14.01,2013-09-27 01:10:00,
2013-09-26 20:11:00,63.4,57.5,30.01,ESE,109,0.0,4.0,81,0.00,,CLR,0.01,VWS V14.01,2013-09-27 01:11:00,
2013-09-26 20:15:00,63.4,57.1,30.02,ESE,109,0.0,0.0,80,0.00,,CLR,0.01,VWS V14.01,2013-09-27 01:15:00,
2013-09-26 20:16:00,63.3,57.4,30.02,ESE,109,0.0,0.0,81,0.00,,CLR,0.01,VWS V14.01,2013-09-27 01:16:00,
2013-09-26 20:20:00,63.2,57.3,30.02,ESE,109,0.0,0.0,81,0.00,,CLR,0.01,VWS V14.01,2013-09-27 01:20:00,
2013-09-26 20:21:00,63.2,57.3,30.02,ESE,109,0.0,0.0,81,0.00,,CLR,0.01,VWS V14.01,2013-09-27 01:21:00,
2013-09-26 20:25:00,63.1,57.2,30.02,ESE,109,0.0,0.0,81,0.00,,CLR,0.01,VWS V14.01,2013-09-27 01:25:00,
2013-09-26 20:26:00,63.0,57.1,30.02,ESE,109,0.0,0.0,81,0.00,,CLR,0.01,VWS V14.01,2013-09-27 01:26:00,
2013-09-26 20:30:00,62.9,57.0,30.02,ESE,109,0.0,0.0,81,0.00,,CLR,0.01,VWS V14.01,2013-09-27 01:30:00,
2013-09-26 20:31:00,62.9,57.3,30.02,ESE,109,0.0,0.0,82,0.00,,CLR,0.01,VWS V14.01,2013-09-27 01:31:00,
2013-09-26 20:35:00,62.8,57.2,30.02,ESE,109,0.0,0.0,82,0.00,,CLR,0.01,VWS V14.01,2013-09-27 01:35:00,
2013-09-26 20:36:00,62.8,57.2,30.02,ESE,109,0.0,0.0,82,0.00,,CLR,0.01,VWS V14.01,2013-09-27 01:36:00,
2013-09-26 20:40:00,62.9,57.7,30.02,ESE,109,0.0,0.0,83,0.00,,CLR,0.01,VWS V14.01,2013-09-27 01:40:00,
2013-09-26 20:41:00,62.9,57.7,30.02,ESE,109,0.0,0.0,83,0.00,,CLR,0.01,VWS V14.01,2013-09-27 01:41:00,
2013-09-26 20:45:00,63.0,57.8,30.02,ESE,109,0.0,0.0,83,0.00,,CLR,0.01,VWS V14.01,2013-09-27 01:45:00,
2013-09-26 20:47:00,63.1,57.9,30.02,ESE,109,0.0,0.0,83,0.00,,CLR,0.01,VWS V14.01,2013-09-27 01:47:00,
2013-09-26 20:50:00,63.0,57.4,30.02,ESE,109,0.0,0.0,82,0.00,,CLR,0.01,VWS V14.01,2013-09-27 01:50:00,
2013-09-26 20:52:00,63.0,57.4,30.02,ESE,109,0.0,0.0,82,0.00,,CLR,0.01,VWS V14.01,2013-09-27 01:52:00,
2013-09-26 20:55:00,62.9,57.0,30.02,ESE,109,0.0,0.0,81,0.00,,CLR,0.01,VWS V14.01,2013-09-27 01:55:00,
2013-09-26 20:57:00,62.5,56.2,30.02,ESE,109,0.0,0.0,80,0.00,,CLR,0.01,VWS V14.01,2013-09-27 01:57:00,
2013-09-26 21:00:00,61.6,55.4,30.02,ESE,109,0.0,0.0,80,0.00,,CLR,0.01,VWS V14.01,2013-09-27 02:00:00,
2013-09-26 21:02:00,61.0,55.1,30.02,ESE,109,0.0,0.0,81,0.00,,CLR,0.01,VWS V14.01,2013-09-27 02:02:00,
2013-09-26 21:05:00,60.2,54.7,30.02,ESE,109,0.0,0.0,82,0.00,,CLR,0.01,VWS V14.01,2013-09-27 02:05:00,
2013-09-26 21:07:00,59.6,54.4,30.02,ESE,109,0.0,0.0,83,0.00,,CLR,0.01,VWS V14.01,2013-09-27 02:07:00,
2013-09-26 21:10:00,59.1,54.3,30.02,ESE,109,0.0,0.0,84,0.00,,CLR,0.01,VWS V14.01,2013-09-27 02:10:00,
2013-09-26 21:12:00,58.7,54.2,30.02,ESE,109,0.0,0.0,85,0.00,,CLR,0.01,VWS V14.01,2013-09-27 02:12:00,
2013-09-26 21:15:00,58.4,54.2,30.02,ESE,109,0.0,0.0,86,0.00,,CLR,0.01,VWS V14.01,2013-09-27 02:15:00,
2013-09-26 21:18:00,58.1,54.3,30.02,ESE,109,0.0,0.0,87,0.00,,CLR,0.01,VWS V14.01,2013-09-27 02:18:00,
2013-09-26 21:20:00,57.9,54.1,30.03,ESE,109,0.0,0.0,87,0.00,,CLR,0.01,VWS V14.01,2013-09-27 02:20:00,
2013-09-26 21:23:00,57.7,54.2,30.03,ESE,109,0.0,0.0,88,0.00,,CLR,0.01,VWS V14.01,2013-09-27 02:23:00,
2013-09-26 21:25:00,57.6,54.1,30.03,ESE,109,0.0,0.0,88,0.00,,CLR,0.01,VWS V14.01,2013-09-27 02:25:00,
2013-09-26 21:28:00,57.4,54.2,30.03,ESE,109,0.0,0.0,89,0.00,,CLR,0.01,VWS V14.01,2013-09-27 02:28:00,
2013-09-26 21:30:00,57.3,54.1,30.03,ESE,109,0.0,0.0,89,0.00,,CLR,0.01,VWS V14.01,2013-09-27 02:30:00,
2013-09-26 21:33:00,57.2,54.0,30.03,ESE,109,0.0,0.0,89,0.00,,CLR,0.01,VWS V14.01,2013-09-27 02:33:00,
2013-09-26 21:35:00,57.2,54.0,30.03,ESE,109,0.0,0.0,89,0.00,,CLR,0.01,VWS V14.01,2013-09-27 02:35:00,
2013-09-26 21:38:00,57.0,53.8,30.03,ESE,109,0.0,0.0,89,0.00,,CLR,0.01,VWS V14.01,2013-09-27 02:38:00,
2013-09-26 21:40:00,56.9,53.7,30.03,ESE,109,0.0,0.0,89,0.00,,CLR,0.01,VWS V14.01,2013-09-27 02:40:00,
2013-09-26 21:43:00,56.8,54.5,30.03,ESE,109,0.0,0.0,92,0.00,,CLR,0.01,VWS V14.01,2013-09-27 02:43:00,
2013-09-26 21:45:00,56.8,53.9,30.03,ESE,109,0.0,0.0,90,0.00,,CLR,0.01,VWS V14.01,2013-09-27 02:45:00,
2013-09-26 21:48:00,56.8,53.9,30.03,ESE,109,0.0,0.0,90,0.00,,CLR,0.01,VWS V14.01,2013-09-27 02:48:00,
2013-09-26 21:50:00,56.8,53.9,30.03,ESE,109,0.0,0.0,90,0.00,,CLR,0.01,VWS V14.01,2013-09-27 02:50:00,
2013-09-26 21:54:00,56.8,53.9,30.03,ESE,109,0.0,0.0,90,0.00,,CLR,0.01,VWS V14.01,2013-09-27 02:54:00,
2013-09-26 21:55:00,56.8,53.9,30.03,ESE,109,0.0,0.0,90,0.00,,CLR,0.01,VWS V14.01,2013-09-27 02:55:00,
2013-09-26 21:59:00,56.8,53.9,30.03,ESE,109,0.0,0.0,90,0.00,,CLR,0.01,VWS V14.01,2013-09-27 02:59:00,
2013-09-26 22:00:00,56.9,54.3,30.03,ESE,109,0.0,0.0,91,0.00,,CLR,0.01,VWS V14.01,2013-09-27 03:00:00,
2013-09-26 22:04:00,56.8,53.9,30.03,ESE,109,0.0,0.0,90,0.00,,CLR,0.01,VWS V14.01,2013-09-27 03:04:00,
2013-09-26 22:05:00,56.9,54.0,30.03,ESE,109,0.0,0.0,90,0.00,,CLR,0.01,VWS V14.01,2013-09-27 03:05:00,
2013-09-26 22:09:00,56.5,53.3,30.03,ESE,109,0.0,0.0,89,0.00,,CLR,0.01,VWS V14.01,2013-09-27 03:09:00,
2013-09-26 22:10:00,56.3,53.1,30.03,ESE,109,0.0,0.0,89,0.00,,CLR,0.01,VWS V14.01,2013-09-27 03:10:00,
2013-09-26 22:14:00,55.6,52.4,30.04,ESE,109,0.0,0.0,89,0.00,,CLR,0.01,VWS V14.01,2013-09-27 03:14:00,
2013-09-26 22:15:00,55.5,52.3,30.04,ESE,109,0.0,0.0,89,0.00,,CLR,0.01,VWS V14.01,2013-09-27 03:15:00,
2013-09-26 22:19:00,55.2,52.6,30.03,ESE,109,0.0,0.0,91,0.00,,CLR,0.01,VWS V14.01,2013-09-27 03:19:00,
2013-09-26 22:20:00,55.1,52.5,30.03,ESE,110,0.0,0.0,91,0.00,,CLR,0.01,VWS V14.01,2013-09-27 03:20:00,
2013-09-26 22:24:00,55.0,52.4,30.04,ESE,109,0.0,0.0,91,0.00,,CLR,0.01,VWS V14.01,2013-09-27 03:24:00,
2013-09-26 22:25:00,55.0,52.4,30.04,ESE,109,0.0,0.0,91,0.00,,CLR,0.01,VWS V14.01,2013-09-27 03:25:00,
2013-09-26 22:29:00,54.9,52.6,30.04,ESE,109,0.0,0.0,92,0.00,,CLR,0.01,VWS V14.01,2013-09-27 03:29:00,
2013-09-26 22:30:00,55.0,52.7,30.04,ESE,109,0.0,0.0,92,0.00,,CLR,0.01,VWS V14.01,2013-09-27 03:30:00,
2013-09-26 22:34:00,54.8,52.5,30.04,ESE,109,0.0,0.0,92,0.00,,CLR,0.01,VWS V14.01,2013-09-27 03:34:00,
2013-09-26 22:35:00,54.9,52.6,30.04,ESE,109,0.0,0.0,92,0.00,,CLR,0.01,VWS V14.01,2013-09-27 03:35:00,
2013-09-26 22:39:00,54.8,52.5,30.04,ESE,109,0.0,0.0,92,0.00,,CLR,0.01,VWS V14.01,2013-09-27 03:39:00,
2013-09-26 22:40:00,54.8,52.5,30.04,ESE,109,0.0,0.0,92,0.00,,CLR,0.01,VWS V14.01,2013-09-27 03:40:00,
2013-09-26 22:44:00,54.7,52.4,30.04,ESE,109,0.0,0.0,92,0.00,,CLR,0.01,VWS V14.01,2013-09-27 03:44:00,
2013-09-26 22:45:00,54.7,52.4,30.04,ESE,109,0.0,0.0,92,0.00,,CLR,0.01,VWS V14.01,2013-09-27 03:45:00,
2013-09-26 22:49:00,54.6,52.3,30.04,ESE,109,0.0,0.0,92,0.00,,CLR,0.01,VWS V14.01,2013-09-27 03:49:00,
2013-09-26 22:50:00,54.6,52.3,30.04,ESE,109,0.0,0.0,92,0.00,,CLR,0.01,VWS V14.01,2013-09-27 03:50:00,
2013-09-26 22:54:00,54.5,52.2,30.04,ESE,109,0.0,0.0,92,0.00,,CLR,0.01,VWS V14.01,2013-09-27 03:54:00,
2013-09-26 22:55:00,54.5,52.2,30.04,ESE,109,0.0,0.0,92,0.00,,CLR,0.01,VWS V14.01,2013-09-27 03:55:00,
2013-09-26 22:59:00,54.4,52.1,30.04,ESE,109,0.0,0.0,92,0.00,,CLR,0.01,VWS V14.01,2013-09-27 03:59:00,
2013-09-26 23:00:00,54.4,52.1,30.04,ESE,109,0.0,0.0,92,0.00,,CLR,0.01,VWS V14.01,2013-09-27 04:00:00,
2013-09-26 23:01:00,54.4,52.1,30.03,ESE,109,0.0,0.0,92,0.00,,CLR,0.01,VWS V14.01,2013-09-27 04:01:00,
2013-09-26 23:02:00,54.4,52.4,30.03,ESE,109,0.0,0.0,93,0.00,,CLR,0.01,VWS V14.01,2013-09-27 04:02:00,
2013-09-26 23:04:00,54.5,52.5,30.04,ESE,109,0.0,0.0,93,0.00,,CLR,0.01,VWS V14.01,2013-09-27 04:04:00,
2013-09-26 23:05:00,54.5,52.5,30.04,ESE,109,0.0,0.0,93,0.00,,CLR,0.01,VWS V14.01,2013-09-27 04:05:00,
2013-09-26 23:08:00,54.6,52.6,30.03,ESE,109,0.0,0.0,93,0.00,,CLR,0.01,VWS V14.01,2013-09-27 04:08:00,
2013-09-26 23:09:00,54.8,52.8,30.04,ESE,109,0.0,0.0,93,0.00,,CLR,0.01,VWS V14.01,2013-09-27 04:09:00,
2013-09-26 23:10:00,54.8,52.8,30.04,ESE,109,0.0,0.0,93,0.00,,CLR,0.01,VWS V14.01,2013-09-27 04:10:00,
2013-09-26 23:14:00,55.2,53.5,30.03,ESE,109,0.0,0.0,94,0.00,,CLR,0.01,VWS V14.01,2013-09-27 04:14:00,
2013-09-26 23:15:00,55.2,53.5,30.03,ESE,109,0.0,0.0,94,0.00,,CLR,0.01,VWS V14.01,2013-09-27 04:15:00,
2013-09-26 23:20:00,55.6,53.9,30.04,ESE,109,0.0,0.0,94,0.00,,CLR,0.01,VWS V14.01,2013-09-27 04:20:00,
2013-09-26 23:25:00,55.7,53.7,30.04,ESE,109,0.0,0.0,93,0.00,,CLR,0.01,VWS V14.01,2013-09-27 04:25:00,
2013-09-26 23:30:00,55.9,53.9,30.04,ESE,109,0.0,0.0,93,0.00,,CLR,0.01,VWS V14.01,2013-09-27 04:30:00,
2013-09-26 23:35:00,55.4,52.8,30.04,ESE,109,0.0,0.0,91,0.00,,CLR,0.01,VWS V14.01,2013-09-27 04:35:00,
2013-09-26 23:40:00,54.5,51.6,30.04,ESE,109,0.0,0.0,90,0.00,,CLR,0.01,VWS V14.01,2013-09-27 04:40:00,
2013-09-26 23:45:00,53.7,50.8,30.04,ESE,109,0.0,0.0,90,0.00,,CLR,0.01,VWS V14.01,2013-09-27 04:45:00,
2013-09-26 23:50:00,53.2,50.7,30.04,ESE,109,0.0,0.0,91,0.00,,CLR,0.01,VWS V14.01,2013-09-27 04:50:00,
2013-09-26 23:55:00,53.1,50.8,30.04,ESE,109,0.0,0.0,92,0.00,,CLR,0.01,VWS V14.01,2013-09-27 04:55:00,